createdAt,value
2024-05-09T00:00:10.459Z,12.93
2024-05-09T00:01:08.985Z,-39.94
2024-05-09T00:02:08.913Z,-40.00
2024-05-09T00:03:09.007Z,-39.94
2024-05-09T00:04:08.971Z,-40.00
2024-05-09T00:05:08.109Z,12.93
2024-05-09T00:06:08.793Z,12.88
2024-05-09T00:07:08.905Z,-39.94
2024-05-09T00:08:08.894Z,-40.00
2024-05-09T00:09:07.928Z,-39.94
2024-05-09T00:10:14.701Z,12.87
2024-05-09T00:11:10.457Z,12.85
2024-05-09T00:12:08.849Z,12.85
2024-05-09T00:13:09.239Z,12.85
2024-05-09T00:14:07.931Z,-39.94
2024-05-09T00:15:07.855Z,-40.00
2024-05-09T00:16:08.805Z,-40.00
2024-05-09T00:17:07.873Z,-40.00
2024-05-09T00:18:09.003Z,12.95
2024-05-09T00:19:08.833Z,12.95
2024-05-09T00:20:17.418Z,12.95
2024-05-09T00:21:09.848Z,12.93
2024-05-09T00:22:08.740Z,12.92
2024-05-09T00:23:09.351Z,12.85
2024-05-09T00:24:08.550Z,-39.94
2024-05-09T00:25:08.729Z,-40.00
2024-05-09T00:26:08.680Z,-40.00
2024-05-09T00:27:08.958Z,-40.00
2024-05-09T00:28:08.679Z,-39.94
2024-05-09T00:29:08.626Z,12.69
2024-05-09T00:30:11.695Z,12.67
2024-05-09T00:31:09.419Z,12.66
2024-05-09T00:32:07.773Z,12.63
2024-05-09T00:33:09.170Z,12.62
2024-05-09T00:34:08.915Z,12.60
2024-05-09T00:35:08.632Z,12.60
2024-05-09T00:36:08.423Z,12.57
2024-05-09T00:37:08.578Z,12.54
2024-05-09T00:38:07.695Z,12.52
2024-05-09T00:39:08.393Z,12.52
2024-05-09T00:40:14.879Z,12.52
2024-05-09T00:41:10.628Z,12.54
2024-05-09T00:42:09.494Z,12.57
2024-05-09T00:43:08.520Z,12.54
2024-05-09T00:44:08.437Z,12.52
2024-05-09T00:45:07.517Z,12.49
2024-05-09T00:46:08.484Z,12.49
2024-05-09T00:47:08.517Z,12.45
2024-05-09T00:48:09.661Z,-40.00
2024-05-09T00:49:08.511Z,-39.94
2024-05-09T00:50:12.650Z,-40.00
2024-05-09T00:51:10.526Z,-40.00
2024-05-09T00:52:07.473Z,-40.00
2024-05-09T00:53:08.433Z,12.54
2024-05-09T00:54:08.228Z,-40.00
2024-05-09T00:55:07.414Z,-40.00
2024-05-09T00:56:07.484Z,-40.00
2024-05-09T00:57:08.217Z,12.39
2024-05-09T00:58:08.370Z,12.38
2024-05-09T00:59:08.277Z,-39.94
2024-05-09T01:00:18.370Z,-40.00
2024-05-09T01:01:09.165Z,-40.00
2024-05-09T01:02:07.412Z,-40.00
2024-05-09T01:03:09.015Z,12.29
2024-05-09T01:04:09.073Z,12.27
2024-05-09T01:05:08.303Z,12.21
2024-05-09T01:06:08.108Z,12.16
2024-05-09T01:07:07.289Z,12.13
2024-05-09T01:08:07.494Z,12.08
2024-05-09T01:09:08.070Z,12.08
2024-05-09T01:10:14.118Z,12.06
2024-05-09T01:11:10.324Z,12.06
2024-05-09T01:12:08.160Z,-39.94
2024-05-09T01:13:07.655Z,-40.00
2024-05-09T01:14:08.140Z,-40.00
2024-05-09T01:15:08.010Z,-40.00
2024-05-09T01:16:08.173Z,-40.00
2024-05-09T01:17:08.132Z,-39.94
2024-05-09T01:18:08.234Z,-40.00
2024-05-09T01:19:08.818Z,-39.94
2024-05-09T01:20:10.904Z,12.13
2024-05-09T01:21:08.284Z,12.12
2024-05-09T01:22:08.106Z,12.15
2024-05-09T01:23:08.108Z,12.15
2024-05-09T01:24:07.114Z,12.16
2024-05-09T01:25:08.070Z,12.16
2024-05-09T01:26:08.050Z,12.16
2024-05-09T01:27:07.889Z,12.15
2024-05-09T01:28:08.039Z,12.13
2024-05-09T01:29:07.977Z,-39.94
2024-05-09T01:30:09.469Z,-40.00
2024-05-09T01:31:09.985Z,-40.00
2024-05-09T01:32:08.124Z,-40.00
2024-05-09T01:33:09.829Z,-40.00
2024-05-09T01:34:08.469Z,-40.00
2024-05-09T01:35:07.913Z,-40.00
2024-05-09T01:36:07.795Z,-40.00
2024-05-09T01:37:07.947Z,-40.00
2024-05-09T01:38:07.974Z,-40.00
2024-05-09T01:39:07.766Z,11.87
2024-05-09T01:40:12.275Z,11.89
2024-05-09T01:41:09.916Z,11.90
2024-05-09T01:42:07.726Z,11.90
2024-05-09T01:43:09.758Z,11.90
2024-05-09T01:44:07.800Z,11.87
2024-05-09T01:45:07.692Z,11.86
2024-05-09T01:46:08.328Z,11.85
2024-05-09T01:47:07.819Z,11.85
2024-05-09T01:48:07.810Z,11.83
2024-05-09T01:49:07.638Z,11.83
2024-05-09T01:50:10.714Z,11.85
2024-05-09T01:51:07.739Z,11.86
2024-05-09T01:52:08.299Z,11.83
2024-05-09T01:53:07.889Z,-39.94
2024-05-09T01:54:07.588Z,-40.00
2024-05-09T01:55:07.487Z,-40.00
2024-05-09T01:56:07.689Z,-40.00
2024-05-09T01:57:07.561Z,-40.00
2024-05-09T01:58:07.762Z,11.85
2024-05-09T01:59:07.642Z,11.82
2024-05-09T02:00:08.050Z,11.82
2024-05-09T02:01:07.458Z,11.80
2024-05-09T02:02:07.742Z,11.78
2024-05-09T02:03:07.798Z,11.77
2024-05-09T02:04:07.977Z,11.75
2024-05-09T02:05:07.789Z,11.72
2024-05-09T02:06:07.528Z,11.72
2024-05-09T02:07:07.385Z,11.70
2024-05-09T02:08:07.635Z,11.71
2024-05-09T02:09:07.433Z,11.72
2024-05-09T02:10:13.778Z,11.72
2024-05-09T02:11:08.574Z,11.70
2024-05-09T02:12:07.537Z,11.67
2024-05-09T02:13:07.297Z,11.68
2024-05-09T02:14:07.544Z,11.67
2024-05-09T02:15:07.371Z,11.65
2024-05-09T02:16:07.266Z,11.67
2024-05-09T02:17:07.529Z,-39.94
2024-05-09T02:18:07.646Z,-40.00
2024-05-09T02:19:08.050Z,-40.00
2024-05-09T02:20:10.770Z,-40.00
2024-05-09T02:21:09.512Z,-40.00
2024-05-09T02:22:07.211Z,11.61
2024-05-09T02:23:07.550Z,11.59
2024-05-09T02:24:07.270Z,11.56
2024-05-09T02:25:07.908Z,11.52
2024-05-09T02:26:06.460Z,11.50
2024-05-09T02:27:07.236Z,11.46
2024-05-09T02:28:07.142Z,11.44
2024-05-09T02:29:07.318Z,11.44
2024-05-09T02:30:15.193Z,11.44
2024-05-09T02:31:09.314Z,11.49
2024-05-09T02:32:07.323Z,11.50
2024-05-09T02:33:07.912Z,11.50
2024-05-09T02:34:07.143Z,11.49
2024-05-09T02:35:07.303Z,11.47
2024-05-09T02:36:07.148Z,11.47
2024-05-09T02:37:07.051Z,11.46
2024-05-09T02:38:07.278Z,11.46
2024-05-09T02:39:07.129Z,11.47
2024-05-09T02:40:09.157Z,11.47
2024-05-09T02:41:07.768Z,11.49
2024-05-09T02:42:07.079Z,11.50
2024-05-09T02:43:08.282Z,-40.00
2024-05-09T02:44:07.188Z,-40.00
2024-05-09T02:45:07.046Z,-40.00
2024-05-09T02:46:06.964Z,-40.00
2024-05-09T02:47:07.388Z,-40.00
2024-05-09T02:48:07.281Z,-40.00
2024-05-09T02:49:06.979Z,-40.00
2024-05-09T02:50:08.253Z,-39.94
2024-05-09T02:51:07.120Z,11.54
2024-05-09T02:52:06.885Z,11.50
2024-05-09T02:53:07.228Z,11.50
2024-05-09T02:54:06.959Z,11.46
2024-05-09T02:55:06.850Z,11.39
2024-05-09T02:56:07.114Z,11.38
2024-05-09T02:57:06.960Z,11.35
2024-05-09T02:58:06.828Z,11.36
2024-05-09T02:59:07.022Z,11.36
2024-05-09T03:00:12.097Z,11.38
2024-05-09T03:01:07.842Z,11.35
2024-05-09T03:02:07.049Z,11.32
2024-05-09T03:03:07.207Z,11.29
2024-05-09T03:04:07.020Z,-40.00
2024-05-09T03:05:06.972Z,-39.94
2024-05-09T03:06:06.824Z,-40.00
2024-05-09T03:07:06.790Z,-40.00
2024-05-09T03:08:06.989Z,-39.94
2024-05-09T03:09:06.796Z,-40.00
2024-05-09T03:10:12.229Z,11.21
2024-05-09T03:11:09.018Z,11.20
2024-05-09T03:12:06.878Z,11.16
2024-05-09T03:13:06.672Z,11.14
2024-05-09T03:14:06.928Z,11.11
2024-05-09T03:15:06.733Z,11.07
2024-05-09T03:16:06.638Z,11.06
2024-05-09T03:17:06.977Z,11.09
2024-05-09T03:18:07.369Z,11.09
2024-05-09T03:19:06.686Z,11.09
2024-05-09T03:20:11.669Z,11.09
2024-05-09T03:21:07.916Z,11.07
2024-05-09T03:22:06.583Z,11.02
2024-05-09T03:23:06.827Z,11.03
2024-05-09T03:24:06.643Z,11.03
2024-05-09T03:25:06.545Z,11.07
2024-05-09T03:26:06.720Z,11.06
2024-05-09T03:27:06.635Z,11.02
2024-05-09T03:28:06.548Z,11.01
2024-05-09T03:29:06.718Z,11.03
2024-05-09T03:30:07.664Z,11.02
2024-05-09T03:31:06.700Z,11.03
2024-05-09T03:32:06.691Z,11.01
2024-05-09T03:33:06.727Z,10.99
2024-05-09T03:34:06.618Z,-40.00
2024-05-09T03:35:06.647Z,-39.94
2024-05-09T03:36:09.793Z,-40.00
2024-05-09T03:37:06.490Z,-40.00
2024-05-09T03:38:06.633Z,-40.00
2024-05-09T03:39:06.474Z,-40.00
2024-05-09T03:40:09.350Z,-40.00
2024-05-09T03:41:07.572Z,10.94
2024-05-09T03:42:06.446Z,10.91
2024-05-09T03:43:06.356Z,10.89
2024-05-09T03:44:06.578Z,10.88
2024-05-09T03:45:06.457Z,-39.94
2024-05-09T03:46:06.318Z,-40.00
2024-05-09T03:47:06.579Z,-40.00
2024-05-09T03:48:07.717Z,10.91
2024-05-09T03:49:06.318Z,10.88
2024-05-09T03:50:14.961Z,10.86
2024-05-09T03:51:08.716Z,10.84
2024-05-09T03:52:06.248Z,10.83
2024-05-09T03:53:06.560Z,10.81
2024-05-09T03:54:06.320Z,10.81
2024-05-09T03:55:06.213Z,10.81
2024-05-09T03:56:06.422Z,10.80
2024-05-09T03:57:06.292Z,10.80
2024-05-09T03:58:06.199Z,10.78
2024-05-09T03:59:06.399Z,10.81
2024-05-09T04:00:12.242Z,10.84
2024-05-09T04:01:08.416Z,10.86
2024-05-09T04:02:06.460Z,10.88
2024-05-09T04:03:08.556Z,-40.00
2024-05-09T04:04:06.207Z,-40.00
2024-05-09T04:05:06.307Z,-40.00
2024-05-09T04:06:06.185Z,-40.00
2024-05-09T04:07:06.191Z,10.89
2024-05-09T04:08:06.334Z,10.86
2024-05-09T04:09:06.155Z,10.84
2024-05-09T04:10:08.915Z,10.84
2024-05-09T04:11:06.345Z,10.84
2024-05-09T04:12:06.208Z,10.84
2024-05-09T04:13:06.049Z,10.86
2024-05-09T04:14:06.356Z,10.89
2024-05-09T04:15:08.177Z,10.94
2024-05-09T04:16:05.990Z,10.95
2024-05-09T04:17:06.226Z,10.95
2024-05-09T04:18:06.331Z,10.96
2024-05-09T04:19:06.061Z,10.96
2024-05-09T04:20:08.368Z,10.96
2024-05-09T04:21:06.157Z,10.98
2024-05-09T04:22:05.940Z,10.98
2024-05-09T04:23:06.543Z,11.02
2024-05-09T04:24:05.992Z,11.06
2024-05-09T04:25:05.910Z,-40.00
2024-05-09T04:26:06.080Z,-40.00
2024-05-09T04:27:05.150Z,-40.00
2024-05-09T04:28:05.985Z,-40.00
2024-05-09T04:29:06.062Z,-40.00
2024-05-09T04:30:09.934Z,-40.00
2024-05-09T04:31:07.009Z,11.47
2024-05-09T04:32:06.096Z,-40.00
2024-05-09T04:33:07.094Z,-39.94
2024-05-09T04:34:07.128Z,-40.00
2024-05-09T04:35:05.973Z,-39.94
2024-05-09T04:36:05.864Z,-40.00
2024-05-09T04:37:05.768Z,-40.00
2024-05-09T04:38:06.297Z,-40.00
2024-05-09T04:39:05.828Z,-39.94
2024-05-09T04:40:08.948Z,-40.00
2024-05-09T04:41:06.919Z,12.05
2024-05-09T04:42:05.796Z,12.06
2024-05-09T04:43:06.496Z,-39.94
2024-05-09T04:44:05.933Z,-40.00
2024-05-09T04:45:05.768Z,-40.00
2024-05-09T04:46:05.673Z,-40.00
2024-05-09T04:47:05.921Z,-39.94
2024-05-09T04:48:06.000Z,-40.00
2024-05-09T04:49:05.719Z,12.46
2024-05-09T04:50:05.858Z,-39.94
2024-05-09T04:51:05.839Z,-40.00
2024-05-09T04:52:05.608Z,-40.00
2024-05-09T04:53:06.431Z,-40.00
2024-05-09T04:54:08.428Z,-40.00
2024-05-09T04:55:05.582Z,-39.94
2024-05-09T04:56:05.822Z,-40.00
2024-05-09T04:57:05.641Z,-40.00
2024-05-09T04:58:05.762Z,-40.00
2024-05-09T04:59:05.717Z,-40.00
2024-05-09T05:00:09.439Z,-40.00
2024-05-09T05:01:07.693Z,13.12
2024-05-09T05:02:05.713Z,13.14
2024-05-09T05:03:06.662Z,13.20
2024-05-09T05:04:05.578Z,13.27
2024-05-09T05:05:05.703Z,13.33
2024-05-09T05:06:05.656Z,13.37
2024-05-09T05:07:05.463Z,13.38
2024-05-09T05:08:05.771Z,13.47
2024-05-09T05:09:05.515Z,-40.00
2024-05-09T05:10:05.963Z,-40.00
2024-05-09T05:11:04.801Z,-40.00
2024-05-09T05:12:05.672Z,13.79
2024-05-09T05:13:05.403Z,13.81
2024-05-09T05:14:04.794Z,13.88
2024-05-09T05:15:05.454Z,13.94
2024-05-09T05:16:05.353Z,14.02
2024-05-09T05:17:05.561Z,14.12
2024-05-09T05:18:05.565Z,-39.94
2024-05-09T05:19:09.030Z,-39.94
2024-05-09T05:20:08.749Z,-40.00
2024-05-09T05:21:05.435Z,-40.00
2024-05-09T05:22:04.547Z,-40.00
2024-05-09T05:23:05.482Z,-40.00
2024-05-09T05:24:05.350Z,-39.94
2024-05-09T05:25:05.255Z,-40.00
2024-05-09T05:26:05.452Z,14.80
2024-05-09T05:27:05.320Z,14.88
2024-05-09T05:28:04.447Z,-39.94
2024-05-09T05:29:05.441Z,-40.00
2024-05-09T05:30:07.511Z,-40.00
2024-05-09T05:31:06.367Z,-40.00
2024-05-09T05:32:05.513Z,-40.00
2024-05-09T05:33:05.403Z,-40.00
2024-05-09T05:34:05.273Z,-40.00
2024-05-09T05:35:05.419Z,-40.00
2024-05-09T05:36:05.224Z,-39.94
2024-05-09T05:37:05.131Z,15.60
2024-05-09T05:38:05.338Z,15.67
2024-05-09T05:39:05.209Z,15.79
2024-05-09T05:40:05.766Z,15.88
2024-05-09T05:41:05.281Z,16.00
2024-05-09T05:42:05.162Z,16.12
2024-05-09T05:43:05.070Z,16.22
2024-05-09T05:44:05.280Z,16.31
2024-05-09T05:45:06.676Z,16.37
2024-05-09T05:46:05.699Z,-39.94
2024-05-09T05:47:05.237Z,-40.00
2024-05-09T05:48:06.336Z,-40.00
2024-05-09T05:49:05.146Z,-40.00
2024-05-09T05:50:09.399Z,-40.00
2024-05-09T05:51:06.146Z,-39.94
2024-05-09T05:52:04.967Z,-39.94
2024-05-09T05:53:05.178Z,-40.00
2024-05-09T05:54:05.028Z,-40.00
2024-05-09T05:55:04.940Z,-40.00
2024-05-09T05:56:05.173Z,17.53
2024-05-09T05:57:04.138Z,-39.99
2024-05-09T05:58:04.871Z,-40.00
2024-05-09T05:59:05.092Z,-40.00
2024-05-09T06:00:09.410Z,17.79
2024-05-09T06:01:06.101Z,17.85
2024-05-09T06:02:05.173Z,17.92
2024-05-09T06:03:04.276Z,18.02
2024-05-09T06:04:05.048Z,18.17
2024-05-09T06:05:05.139Z,18.28
2024-05-09T06:06:05.083Z,18.42
2024-05-09T06:07:04.807Z,18.54
2024-05-09T06:08:04.220Z,18.61
2024-05-09T06:09:04.892Z,18.68
2024-05-09T06:10:09.288Z,18.77
2024-05-09T06:11:06.106Z,-40.00
2024-05-09T06:12:04.191Z,-40.00
2024-05-09T06:13:04.739Z,-40.00
2024-05-09T06:14:04.008Z,-40.00
2024-05-09T06:15:04.841Z,18.91
2024-05-09T06:16:04.729Z,18.90
2024-05-09T06:17:04.961Z,18.74
2024-05-09T06:18:05.032Z,18.67
2024-05-09T06:19:04.920Z,18.59
2024-05-09T06:20:07.384Z,18.58
2024-05-09T06:21:05.874Z,18.65
2024-05-09T06:22:04.651Z,-39.94
2024-05-09T06:23:05.124Z,-39.94
2024-05-09T06:24:06.678Z,-40.00
2024-05-09T06:25:04.628Z,-40.00
2024-05-09T06:26:04.862Z,18.83
2024-05-09T06:27:04.680Z,18.80
2024-05-09T06:28:04.856Z,18.79
2024-05-09T06:29:04.778Z,18.91
2024-05-09T06:30:05.164Z,18.95
2024-05-09T06:31:04.552Z,18.82
2024-05-09T06:32:04.824Z,18.64
2024-05-09T06:33:05.054Z,18.62
2024-05-09T06:34:04.985Z,18.67
2024-05-09T06:35:04.768Z,-39.94
2024-05-09T06:36:04.589Z,-40.00
2024-05-09T06:37:04.515Z,-40.00
2024-05-09T06:38:04.863Z,-40.00
2024-05-09T06:39:04.554Z,-39.94
2024-05-09T06:40:07.265Z,-40.00
2024-05-09T06:41:03.708Z,-40.00
2024-05-09T06:42:04.524Z,19.48
2024-05-09T06:43:04.432Z,19.54
2024-05-09T06:44:04.598Z,19.60
2024-05-09T06:45:04.520Z,19.58
2024-05-09T06:46:04.388Z,19.61
2024-05-09T06:47:04.631Z,19.73
2024-05-09T06:48:04.785Z,19.88
2024-05-09T06:49:04.759Z,20.05
2024-05-09T06:50:08.207Z,20.20
2024-05-09T06:51:05.470Z,20.25
2024-05-09T06:52:04.331Z,20.16
2024-05-09T06:53:04.501Z,-39.94
2024-05-09T06:54:04.394Z,-39.94
2024-05-09T06:55:04.299Z,-40.00
2024-05-09T06:56:04.468Z,20.33
2024-05-09T06:57:04.363Z,20.35
2024-05-09T06:58:04.289Z,20.41
2024-05-09T06:59:04.438Z,20.46
2024-05-09T07:00:05.110Z,20.49
2024-05-09T07:01:04.253Z,20.59
2024-05-09T07:02:04.422Z,20.69
2024-05-09T07:03:05.933Z,20.76
2024-05-09T07:04:04.479Z,20.81
2024-05-09T07:05:04.617Z,20.80
2024-05-09T07:06:04.442Z,20.83
2024-05-09T07:07:04.173Z,-39.94
2024-05-09T07:08:04.440Z,-39.94
2024-05-09T07:09:04.248Z,-40.00
2024-05-09T07:10:06.298Z,-40.00
2024-05-09T07:11:04.569Z,-40.00
2024-05-09T07:12:04.325Z,-39.94
2024-05-09T07:13:04.136Z,21.02
2024-05-09T07:14:04.287Z,20.96
2024-05-09T07:15:04.165Z,-40.00
2024-05-09T07:16:04.087Z,-40.00
2024-05-09T07:17:03.424Z,21.09
2024-05-09T07:18:04.299Z,21.17
2024-05-09T07:19:04.400Z,21.24
2024-05-09T07:20:05.527Z,21.19
2024-05-09T07:21:04.168Z,21.06
2024-05-09T07:22:04.009Z,21.04
2024-05-09T07:23:04.301Z,21.11
2024-05-09T07:24:04.086Z,20.95
2024-05-09T07:25:03.977Z,20.90
2024-05-09T07:26:04.214Z,20.84
2024-05-09T07:27:04.040Z,-40.00
2024-05-09T07:28:03.955Z,-40.00
2024-05-09T07:29:04.204Z,-40.00
2024-05-09T07:30:05.592Z,20.91
2024-05-09T07:31:03.916Z,20.86
2024-05-09T07:32:04.115Z,20.98
2024-05-09T07:33:04.287Z,20.86
2024-05-09T07:34:04.023Z,20.59
2024-05-09T07:35:03.240Z,20.41
2024-05-09T07:36:03.947Z,20.24
2024-05-09T07:37:03.869Z,19.50
2024-05-09T07:38:04.052Z,19.08
2024-05-09T07:39:03.917Z,18.98
2024-05-09T07:40:05.802Z,18.83
2024-05-09T07:41:04.057Z,18.77
2024-05-09T07:42:03.889Z,18.90
2024-05-09T07:43:03.801Z,19.14
2024-05-09T07:44:04.056Z,19.46
2024-05-09T07:45:20.896Z,19.58
2024-05-09T07:47:04.524Z,19.75
2024-05-09T07:48:14.155Z,-39.94
2024-05-09T07:50:53.279Z,-40.00
2024-05-09T07:51:54.807Z,-39.96
2024-05-09T07:53:27.113Z,20.34
2024-05-09T07:53:36.355Z,20.46
2024-05-09T07:54:06.461Z,20.64
2024-05-09T07:55:04.914Z,20.87
2024-05-09T07:56:04.409Z,21.08
2024-05-09T07:57:03.830Z,21.27
2024-05-09T07:58:03.721Z,21.29
2024-05-09T07:59:03.790Z,20.93
2024-05-09T08:00:04.514Z,20.84
2024-05-09T08:01:03.819Z,20.83
2024-05-09T08:02:03.932Z,20.89
2024-05-09T08:03:03.693Z,20.87
2024-05-09T08:04:03.687Z,20.91
2024-05-09T08:05:03.807Z,20.95
2024-05-09T08:06:03.635Z,20.95
2024-05-09T08:07:03.554Z,20.86
2024-05-09T08:08:03.696Z,20.59
2024-05-09T08:09:08.052Z,20.34
2024-05-09T08:10:08.033Z,20.31
2024-05-09T08:11:04.192Z,20.30
2024-05-09T08:12:03.570Z,20.42
2024-05-09T08:13:03.489Z,20.38
2024-05-09T08:14:03.626Z,20.35
2024-05-09T08:15:03.545Z,-39.94
2024-05-09T08:16:03.464Z,-40.00
2024-05-09T08:17:03.627Z,-40.00
2024-05-09T08:18:03.596Z,-40.00
2024-05-09T08:19:03.606Z,-40.00
2024-05-09T08:20:05.592Z,-40.00
2024-05-09T08:21:03.465Z,-40.00
2024-05-09T08:22:02.644Z,-40.00
2024-05-09T08:23:03.540Z,-40.00
2024-05-09T08:24:03.448Z,-39.94
2024-05-09T08:25:03.377Z,-40.00
2024-05-09T08:26:03.496Z,-40.00
2024-05-09T08:27:03.417Z,-39.94
2024-05-09T08:28:03.334Z,20.83
2024-05-09T08:29:03.477Z,21.04
2024-05-09T08:30:03.960Z,21.23
2024-05-09T08:31:06.133Z,-39.94
2024-05-09T08:32:03.510Z,-40.00
2024-05-09T08:33:03.382Z,-40.00
2024-05-09T08:34:03.406Z,19.61
2024-05-09T08:35:03.439Z,19.61
2024-05-09T08:36:03.312Z,19.53
2024-05-09T08:37:10.187Z,19.35
2024-05-09T08:38:05.560Z,19.39
2024-05-09T08:39:03.271Z,19.65
2024-05-09T08:40:04.044Z,19.93
2024-05-09T08:41:03.334Z,20.15
2024-05-09T08:42:03.240Z,20.39
2024-05-09T08:43:03.392Z,20.35
2024-05-09T08:44:03.306Z,20.18
2024-05-09T08:45:03.222Z,20.02
2024-05-09T08:46:03.173Z,19.94
2024-05-09T08:47:03.325Z,20.05
2024-05-09T08:48:03.262Z,20.00
2024-05-09T08:49:03.269Z,19.86
2024-05-09T08:51:03.152Z,19.66
2024-05-09T08:52:03.115Z,19.55
2024-05-09T08:53:03.212Z,19.61
2024-05-09T08:54:03.112Z,19.76
2024-05-09T08:55:03.131Z,-39.94
2024-05-09T08:56:03.179Z,-40.00
2024-05-09T08:57:03.086Z,-40.00
2024-05-09T08:58:03.012Z,-40.00
2024-05-09T08:59:03.152Z,-40.00
2024-05-09T09:00:04.878Z,20.42
2024-05-09T09:01:03.039Z,20.49
2024-05-09T09:02:03.182Z,20.46
2024-05-09T09:03:03.068Z,20.59
2024-05-09T09:04:03.023Z,20.72
2024-05-09T09:05:03.237Z,20.87
2024-05-09T09:06:03.017Z,20.99
2024-05-09T09:07:03.708Z,20.71
2024-05-09T09:08:03.049Z,20.65
2024-05-09T09:09:02.970Z,20.69
2024-05-09T09:10:03.236Z,20.81
2024-05-09T09:11:03.039Z,21.02
2024-05-09T09:12:03.008Z,21.23
2024-05-09T09:13:02.888Z,21.39
2024-05-09T09:14:02.984Z,21.50
2024-05-09T09:15:02.887Z,-40.00
2024-05-09T09:16:03.276Z,-40.00
2024-05-09T09:17:02.959Z,-40.00
2024-05-09T09:18:02.945Z,-40.00
2024-05-09T09:19:02.905Z,-40.00
2024-05-09T09:20:03.020Z,22.14
2024-05-09T09:21:02.928Z,22.22
2024-05-09T09:22:02.834Z,22.27
2024-05-09T09:23:02.914Z,22.12
2024-05-09T09:24:02.800Z,22.07
2024-05-09T09:25:02.740Z,22.14
2024-05-09T09:26:02.861Z,22.23
2024-05-09T09:27:02.775Z,22.27
2024-05-09T09:28:02.674Z,22.28
2024-05-09T09:29:02.863Z,22.34
2024-05-09T09:30:03.520Z,22.41
2024-05-09T09:31:02.646Z,22.35
2024-05-09T09:32:02.801Z,22.28
2024-05-09T09:33:02.835Z,22.20
2024-05-09T09:34:02.883Z,22.20
2024-05-09T09:35:02.829Z,22.25
2024-05-09T09:36:02.677Z,22.32
2024-05-09T09:37:02.607Z,22.41
2024-05-09T09:38:03.213Z,22.37
2024-05-09T09:39:02.639Z,22.37
2024-05-09T09:40:02.615Z,22.37
2024-05-09T09:41:02.875Z,22.39
2024-05-09T09:42:02.598Z,22.49
2024-05-09T09:43:02.609Z,22.62
2024-05-09T09:44:02.661Z,22.77
2024-05-09T09:45:05.332Z,22.68
2024-05-09T09:46:02.583Z,22.72
2024-05-09T09:47:02.671Z,22.75
2024-05-09T09:48:02.663Z,22.83
2024-05-09T09:49:02.746Z,-39.94
2024-05-09T09:50:03.116Z,-40.00
2024-05-09T09:51:02.502Z,-40.00
2024-05-09T09:52:02.481Z,-40.00
2024-05-09T09:53:01.646Z,-40.00
2024-05-09T09:54:02.519Z,-40.00
2024-05-09T09:55:02.458Z,-40.00
2024-05-09T09:56:01.643Z,-40.00
2024-05-09T09:57:02.446Z,-40.00
2024-05-09T09:58:02.378Z,-40.00
2024-05-09T09:59:02.526Z,22.87
2024-05-09T10:00:05.643Z,-40.00
2024-05-09T10:01:02.473Z,-40.00
2024-05-09T10:02:02.742Z,-40.00
2024-05-09T10:03:02.532Z,22.99
2024-05-09T10:04:02.429Z,22.93
2024-05-09T10:05:02.604Z,22.96
2024-05-09T10:06:02.423Z,22.99
2024-05-09T10:07:02.282Z,-39.94
2024-05-09T10:08:02.453Z,-40.00
2024-05-09T10:09:02.331Z,23.23
2024-05-09T10:10:02.588Z,23.27
2024-05-09T10:11:02.528Z,23.26
2024-05-09T10:12:02.368Z,23.15
2024-05-09T10:13:02.312Z,23.11
2024-05-09T10:14:02.372Z,23.08
2024-05-09T10:15:02.259Z,23.07
2024-05-09T10:16:02.218Z,-39.94
2024-05-09T10:17:02.332Z,-40.00
2024-05-09T10:18:02.465Z,-40.00
2024-05-09T10:19:02.273Z,-40.00
2024-05-09T10:20:02.537Z,23.11
2024-05-09T10:21:02.183Z,23.08
2024-05-09T10:22:02.153Z,23.08
2024-05-09T10:23:02.246Z,23.12
2024-05-09T10:24:02.181Z,23.14
2024-05-09T10:25:04.726Z,23.19
2024-05-09T10:26:02.222Z,23.23
2024-05-09T10:27:02.122Z,-39.94
2024-05-09T10:28:02.043Z,-39.94
2024-05-09T10:29:02.185Z,-40.00
2024-05-09T10:30:02.860Z,-40.00
2024-05-09T10:31:02.066Z,23.26
2024-05-09T10:32:02.158Z,23.19
2024-05-09T10:33:02.185Z,23.01
2024-05-09T10:34:02.171Z,22.65
2024-05-09T10:37:25.571Z,-40.00
2024-05-09T10:38:24.354Z,-40.00
2024-05-09T10:39:24.264Z,-40.00
2024-05-09T10:40:29.122Z,-40.00
2024-05-09T10:41:25.346Z,-40.00
2024-05-09T10:42:24.235Z,-40.00
2024-05-09T10:43:23.409Z,-39.94
2024-05-09T10:44:23.360Z,21.85
2024-05-09T10:45:24.195Z,21.97
2024-05-09T10:46:23.484Z,22.16
2024-05-09T10:47:24.492Z,22.35
2024-05-09T10:48:24.410Z,22.50
2024-05-09T10:49:23.400Z,22.50
2024-05-09T10:50:28.677Z,22.57
2024-05-09T10:51:25.157Z,22.59
2024-05-09T10:52:23.324Z,22.53
2024-05-09T10:53:24.189Z,22.50
2024-05-09T10:54:24.117Z,22.57
2024-05-09T10:55:24.311Z,22.68
2024-05-09T10:56:24.160Z,22.69
2024-05-09T10:57:23.228Z,-39.94
2024-05-09T10:58:23.287Z,-40.00
2024-05-09T10:59:24.129Z,-40.00
2024-05-09T11:00:30.552Z,-39.94
2024-05-09T11:01:24.280Z,-40.00
2024-05-09T11:02:23.405Z,-40.00
2024-05-09T11:03:24.089Z,-39.94
2024-05-09T11:04:23.959Z,21.94
2024-05-09T11:05:24.165Z,21.74
2024-05-09T11:06:23.124Z,-40.00
2024-05-09T11:07:24.158Z,-39.94
2024-05-09T11:08:24.046Z,21.27
2024-05-09T11:09:23.165Z,21.23
2024-05-09T11:10:27.925Z,-39.94
2024-05-09T11:11:25.170Z,21.38
2024-05-09T11:12:24.772Z,21.46
2024-05-09T11:13:23.816Z,21.61
2024-05-09T11:14:23.975Z,-40.00
2024-05-09T11:15:23.878Z,-40.00
2024-05-09T11:16:23.855Z,22.06
2024-05-09T11:17:24.063Z,-39.94
2024-05-09T11:18:25.438Z,22.25
2024-05-09T11:19:23.993Z,22.22
2024-05-09T11:20:29.512Z,22.23
2024-05-09T11:21:25.413Z,22.25
2024-05-09T11:22:23.766Z,-40.00
2024-05-09T11:23:23.874Z,22.35
2024-05-09T11:24:23.778Z,-39.94
2024-05-09T11:25:23.709Z,-40.00
2024-05-09T11:26:23.841Z,21.48
2024-05-09T11:27:23.747Z,21.46
2024-05-09T11:28:23.733Z,21.48
2024-05-09T11:29:22.900Z,21.54
2024-05-09T11:30:29.818Z,-39.94
2024-05-09T11:31:25.561Z,-40.00
2024-05-09T11:32:23.820Z,21.83
2024-05-09T11:33:23.705Z,21.97
2024-05-09T11:34:23.647Z,22.07
2024-05-09T11:35:22.858Z,22.16
2024-05-09T11:36:23.653Z,-39.94
2024-05-09T11:37:23.591Z,-39.94
2024-05-09T11:38:23.721Z,22.43
2024-05-09T11:39:23.623Z,-40.00
2024-05-09T11:40:25.927Z,22.37
2024-05-09T11:41:25.727Z,-39.94
2024-05-09T11:42:23.588Z,22.38
2024-05-09T11:43:23.591Z,22.41
2024-05-09T11:44:23.654Z,22.50
2024-05-09T11:45:23.560Z,22.62
2024-05-09T11:46:23.516Z,22.71
2024-05-09T11:47:23.672Z,22.71
2024-05-09T11:48:22.881Z,22.69
2024-05-09T11:49:26.787Z,22.69
2024-05-09T11:50:29.921Z,22.71
2024-05-09T11:51:24.508Z,22.71
2024-05-09T11:52:23.458Z,22.57
2024-05-09T11:53:22.684Z,22.28
2024-05-09T11:54:23.456Z,22.07
2024-05-09T11:55:26.810Z,21.98
2024-05-09T11:56:24.018Z,21.79
2024-05-09T11:57:23.426Z,21.57
2024-05-09T11:58:23.056Z,-39.94
2024-05-09T11:59:23.491Z,-40.00
2024-05-09T12:01:25.301Z,-40.00
2024-05-09T12:02:23.497Z,-40.00
2024-05-09T12:03:23.393Z,-39.94
2024-05-09T12:04:23.492Z,-39.94
2024-05-09T12:05:23.526Z,-39.94
2024-05-09T12:06:23.338Z,-40.00
2024-05-09T12:07:23.343Z,-40.00
2024-05-09T12:08:22.478Z,-40.00
2024-05-09T12:09:23.297Z,-40.00
2024-05-09T12:10:32.056Z,-40.00
2024-05-09T12:11:24.449Z,-39.94
2024-05-09T12:12:23.266Z,-39.94
2024-05-09T12:13:23.348Z,-39.94
2024-05-09T12:14:23.340Z,-40.00
2024-05-09T12:15:23.232Z,-40.00
2024-05-09T12:16:22.565Z,-40.00
2024-05-09T12:17:23.389Z,-40.00
2024-05-09T12:18:23.256Z,-39.94
2024-05-09T12:19:23.316Z,-40.00
2024-05-09T12:20:28.886Z,-40.00
2024-05-09T12:21:25.779Z,-39.94
2024-05-09T12:22:23.082Z,-40.00
2024-05-09T12:23:23.235Z,-40.00
2024-05-09T12:24:23.135Z,-40.00
2024-05-09T12:25:23.125Z,-40.00
2024-05-09T12:26:23.218Z,-40.00
2024-05-09T12:27:23.122Z,-40.00
2024-05-09T12:28:23.267Z,-40.00
2024-05-09T12:29:23.171Z,-40.00
2024-05-09T12:30:32.774Z,-40.00
2024-05-09T12:31:24.240Z,21.27
2024-05-09T12:32:23.274Z,21.09
2024-05-09T12:33:23.140Z,-39.94
2024-05-09T12:34:22.986Z,-39.94
2024-05-09T12:35:23.130Z,-40.00
2024-05-09T12:36:23.009Z,-40.00
2024-05-09T12:37:22.953Z,-39.36
2024-05-09T12:38:22.866Z,-39.94
2024-05-09T12:39:22.993Z,-40.00
2024-05-09T12:40:31.495Z,-40.00
2024-05-09T12:41:23.123Z,-40.00
2024-05-09T12:42:27.394Z,-39.94
2024-05-09T12:43:25.213Z,-40.00
2024-05-09T12:44:23.014Z,-40.00
2024-05-09T12:45:22.916Z,-40.00
2024-05-09T12:46:22.893Z,-40.00
2024-05-09T12:47:24.097Z,22.50
2024-05-09T12:48:22.985Z,-40.00